Time;durP1;ratioP1;P1;durP2;ratioP2;P2;SDS_P1;SDS_P2;PMS_P1;PMS_P2;Temp;Humidity;BMP_temperature;BMP_pressure;BME280_temperature;BME280_humidity;BME280_pressure;Samples;Min_cycle;Max_cycle;Signal;HPM_P1;HPM_P2
2023/01/19 00:01:21;;;;;;;;;;;;;;;-1.27;100.00;94456.75;10375291;28;2061;-75
2023/01/19 00:06:26;;;;;;;;;;;-2.00;99.90;;;-1.35;100.00;94475.56;10388760;28;2072;-75
2023/01/19 00:11:31;;;;;;;;;;;-0.40;99.90;;;-1.39;100.00;94475.22;10377698;28;1916;-75
2023/01/19 00:16:40;;;;;;;;;;;-0.50;99.90;;;-1.39;100.00;94474.44;10383606;28;2225;-76
2023/01/19 00:21:44;;;;;;;;;;;-0.40;99.90;;;-1.29;100.00;94490.44;10378821;28;2040;-74
2023/01/19 00:26:50;;;;;;;;;;;-0.40;99.90;;;-1.39;100.00;94498.94;10384448;28;1999;-75
2023/01/19 00:32:01;;;;;;;;;;;-0.40;99.90;;;-1.44;100.00;94495.41;10386245;28;2079;-74
2023/01/19 00:37:05;;;;;;;;;;;-0.50;99.90;;;-1.51;100.00;94494.72;10380635;28;2047;-74
2023/01/19 00:47:32;;;;;;;;;;;-0.50;99.90;;;-1.40;100.00;94514.97;10374432;28;2106;-74
2023/01/19 00:52:37;;;;;;;;;;;-0.50;99.90;;;-1.28;100.00;94513.13;10382988;28;2041;-74
2023/01/19 00:57:47;;;;;;;;;;;-0.50;99.90;;;-1.32;100.00;94513.84;10379363;28;1962;-74
2023/01/19 01:02:54;;;;;;;;;;;-0.40;99.90;;;-1.36;100.00;94521.41;10412966;28;2136;-75
2023/01/19 01:08:03;;;;;;;;;;;-0.40;99.90;;;-1.30;100.00;94520.47;10390451;28;1966;-73
2023/01/19 01:13:07;;;;;;;;;;;-0.40;99.90;;;-1.24;100.00;94527.47;10382754;28;2068;-74
2023/01/19 01:18:25;;;;;;;;;;;-0.40;99.90;;;-1.26;100.00;94529.53;10392523;28;2147;-74
2023/01/19 01:23:33;;;;;;;;;;;-0.40;99.90;;;-1.23;100.00;94538.81;10377523;28;2065;-74
2023/01/19 01:28:42;;;;;;;;;;;-0.40;99.90;;;-1.22;100.00;94538.59;10407625;28;1972;-74
2023/01/19 01:33:46;;;;;;;;;;;-0.40;99.90;;;-1.32;100.00;94543.66;10389410;28;1986;-76
2023/01/19 01:38:58;;;;;;;;;;;-0.40;99.90;;;-1.42;100.00;94544.22;10372489;28;2108;-76
2023/01/19 01:44:11;;;;;;;;;;;-0.40;99.90;;;-1.40;100.00;94552.72;10375704;28;2004;-73
2023/01/19 01:49:21;;;;;;;;;;;-0.50;99.90;;;-1.32;100.00;94556.81;10383496;28;2091;-73
2023/01/19 01:54:25;;;;;;;;;;;-0.50;99.90;;;-1.35;100.00;94565.19;10384521;28;2146;-74
2023/01/19 01:59:33;;;;;;;;;;;-0.50;99.90;;;-1.26;100.00;94569.09;10397711;28;1820;-73
2023/01/19 02:04:42;;;;;;;;;;;-0.30;99.90;;;-1.36;100.00;94568.84;10399491;28;1902;-77
2023/01/19 02:15:17;;;;;;;;;;;-0.40;99.90;;;-1.45;100.00;94568.41;10389858;28;1985;-73
2023/01/19 02:20:22;;;;;;;;;;;-0.50;99.90;;;-1.58;100.00;94575.72;10381453;28;2092;-72
2023/01/19 02:25:25;;;;;;;;;;;-0.70;99.90;;;-1.59;100.00;94577.56;10391296;28;2045;-74
2023/01/19 02:30:40;;;;;;;;;;;-0.70;99.90;;;-1.49;100.00;94584.88;10384570;28;1982;-75
2023/01/19 02:35:58;;;;;;;;;;;-0.60;99.90;;;-1.55;100.00;94589.22;10382505;28;1984;-75
2023/01/19 02:41:04;;;;;;;;;;;-0.60;99.90;;;-1.67;100.00;94593.69;10389084;28;2068;-75
2023/01/19 02:46:10;;;;;;;;;;;-0.70;99.90;;;-1.59;100.00;94600.44;10384339;28;1990;-74
2023/01/19 02:51:17;;;;;;;;;;;-0.70;99.90;;;-1.65;100.00;94602.19;10380996;28;2064;-75
2023/01/19 02:56:22;;;;;;;;;;;-0.80;99.90;;;-1.65;100.00;94602.97;10389095;28;2008;-74
2023/01/19 03:01:35;;;;;;;;;;;-0.70;99.90;;;-1.69;100.00;94609.72;10378112;28;1966;-75
2023/01/19 03:06:45;;;;;;;;;;;-0.70;99.90;;;-1.70;100.00;94609.94;10388331;28;1987;-74
2023/01/19 03:11:50;;;;;;;;;;;-0.70;99.90;;;-1.68;100.00;94600.78;10388133;28;2092;-74
2023/01/19 03:16:56;;;;;;;;;;;-0.80;99.90;;;-1.54;100.00;94597.94;10407618;28;1957;-74
2023/01/19 03:22:12;;;;;;;;;;;-0.70;99.90;;;-1.48;100.00;94586.50;10379568;28;2071;-75
2023/01/19 03:27:29;;;;;;;;;;;-0.60;99.90;;;-1.60;100.00;94590.94;10390357;28;2042;-75
2023/01/19 03:32:34;;;;;;;;;;;-0.70;99.90;;;-1.64;100.00;94583.50;10384601;28;2025;-73
2023/01/19 03:37:54;;;;;;;;;;;-0.70;99.90;;;-1.80;100.00;94599.94;10422017;28;2078;-74
2023/01/19 03:43:01;;;;;;;;;;;-0.80;99.90;;;-1.86;100.00;94600.84;10389044;28;2178;-74
2023/01/19 03:48:06;;;;;;;;;;;-0.90;99.90;;;-1.94;100.00;94601.19;10417056;28;2011;-75
2023/01/19 03:53:11;;;;;;;;;;;-1.00;99.90;;;-2.17;100.00;94605.31;10414509;28;2129;-73
2023/01/19 03:58:21;;;;;;;;;;;-0.90;99.90;;;-2.19;100.00;94602.13;10384484;28;2033;-75
2023/01/19 04:03:26;;;;;;;;;;;-1.00;99.90;;;-2.36;100.00;94611.63;10389912;28;2036;-74
2023/01/19 04:08:31;;;;;;;;;;;;;;;-2.42;100.00;94617.00;10384550;28;1966;-74
2023/01/19 04:13:41;;;;;;;;;;;;;;;-2.53;100.00;94615.91;10417746;28;2081;-72
2023/01/19 04:18:58;;;;;;;;;;;;;;;-2.53;100.00;94611.47;10383851;28;1998;-74
2023/01/19 04:24:05;;;;;;;;;;;;;;;-2.57;100.00;94601.59;10386339;28;2017;-74
2023/01/19 04:29:12;;;;;;;;;;;-1.50;99.90;;;-2.56;100.00;94613.72;10383016;28;2120;-74
2023/01/19 04:34:17;;;;;;;;;;;-1.50;99.90;;;-2.63;100.00;94616.41;10384159;28;2371;-73
2023/01/19 04:39:34;;;;;;;;;;;-1.40;99.90;;;-2.65;100.00;94615.84;10380892;28;2133;-74
2023/01/19 04:44:40;;;;;;;;;;;-1.40;99.90;;;-2.64;100.00;94614.81;10395917;28;2079;-73
2023/01/19 04:49:52;;;;;;;;;;;-1.40;99.90;;;-2.68;100.00;94621.53;10418364;28;2045;-74
2023/01/19 04:55:00;;;;;;;;;;;-1.50;99.90;;;-2.82;100.00;94613.00;10385070;28;2053;-75
2023/01/19 05:00:08;;;;;;;;;;;;;;;-2.98;100.00;94618.03;10385453;28;2069;-73
2023/01/19 05:05:23;;;;;;;;;;;;;;;-3.05;100.00;94626.00;10393888;28;1990;-75
2023/01/19 05:10:45;;;;;;;;;;;;;;;-3.11;100.00;94629.47;10380509;28;2028;-74
2023/01/19 05:16:05;;;;;;;;;;;;;;;-3.13;100.00;94632.31;10390107;28;1962;-73
2023/01/19 05:21:14;;;;;;;;;;;;;;;-3.19;100.00;94645.50;10401413;28;1963;-74
2023/01/19 05:26:21;;;;;;;;;;;;;;;-3.10;100.00;94642.41;10378008;28;2220;-74
2023/01/19 05:31:27;;;;;;;;;;;;;;;-3.10;100.00;94652.13;10379111;28;2128;-74
2023/01/19 05:36:38;;;;;;;;;;;;;;;-3.05;100.00;94655.72;10358635;28;2186;-75
2023/01/19 05:41:45;;;;;;;;;;;;;;;-3.06;100.00;94650.66;10390814;28;2052;-74
2023/01/19 05:46:49;;;;;;;;;;;;;;;-3.15;100.00;94654.59;10389897;28;1953;-78
2023/01/19 05:51:55;;;;;;;;;;;;;;;-3.08;100.00;94671.09;10389110;28;2036;-78
2023/01/19 05:57:05;;;;;;;;;;;;;;;-2.98;100.00;94675.88;10390687;28;2107;-76
2023/01/19 06:02:09;;;;;;;;;;;;;;;-2.65;100.00;94686.06;10387122;28;2022;-77
2023/01/19 06:07:16;;;;;;;;;;;;;;;-2.48;100.00;94682.66;10390069;28;2330;-75
2023/01/19 06:12:23;;;;;;;;;;;;;;;-2.34;100.00;94687.78;10384256;28;2092;-75
2023/01/19 06:17:30;;;;;;;;;;;;;;;-2.27;100.00;94694.56;10385083;28;2172;-73
2023/01/19 06:22:39;;;;;;;;;;;;;;;-2.47;100.00;94699.25;10394722;28;2010;-78
2023/01/19 06:27:48;;;;;;;;;;;;;;;-2.51;100.00;94703.31;10388776;28;2223;-77
2023/01/19 06:32:55;;;;;;;;;;;;;;;-2.65;100.00;94699.22;10387284;28;2037;-78
2023/01/19 06:38:12;;;;;;;;;;;;;;;-2.74;100.00;94703.94;10388882;28;2089;-77
2023/01/19 06:43:19;;;;;;;;;;;;;;;-2.79;100.00;94709.88;10387110;28;2156;-78
2023/01/19 06:48:27;;;;;;;;;;;;;;;-2.72;100.00;94713.25;10385048;28;2077;-79
2023/01/19 06:53:34;;;;;;;;;;;;;;;-2.58;100.00;94723.63;10387496;28;2094;-77
2023/01/19 06:58:49;;;;;;;;;;;;;;;-2.37;100.00;94730.31;10412020;28;2168;-78
2023/01/19 07:04:19;;;;;;;;;;;;;;;-2.25;100.00;94729.34;10522496;27;1974;-76
2023/01/19 07:09:24;;;;;;;;;;;;;;;-2.25;100.00;94718.81;10517045;28;2001;-77
2023/01/19 07:14:32;;;;;;;;;;;;;;;-2.40;100.00;94730.75;10513643;28;2067;-77
2023/01/19 07:19:35;;;;;;;;;;;;;;;-2.58;100.00;94732.34;10520466;28;1982;-79
2023/01/19 07:24:38;;;;;;;;;;;;;;;-2.59;100.00;94743.09;10514318;28;1890;-73
2023/01/19 07:29:41;;;;;;;;;;;;;;;-2.60;100.00;94747.53;10511660;28;2101;-75
2023/01/19 07:34:44;;;;;;;;;;;;;;;-2.63;100.00;94747.16;10514621;28;2241;-77
2023/01/19 07:39:48;;;;;;;;;;;;;;;-2.68;100.00;94750.44;10510286;28;2020;-76
2023/01/19 07:44:51;;;;;;;;;;;;;;;-2.58;100.00;94757.84;10549747;27;2056;-75
2023/01/19 07:49:54;;;;;;;;;;;;;;;-2.64;100.00;94763.97;10512915;28;1903;-75
2023/01/19 07:54:58;;;;;;;;;;;;;;;-2.57;100.00;94754.19;10511787;28;2009;-75
2023/01/19 08:00:02;;;;;;;;;;;;;;;-2.53;100.00;94766.69;10512790;28;2152;-75
2023/01/19 08:05:05;;;;;;;;;;;;;;;-2.35;100.00;94767.75;10535583;28;2199;-74
2023/01/19 08:10:08;;;;;;;;;;;;;;;-2.14;100.00;94769.97;10557051;28;2002;-74
2023/01/19 08:15:11;;;;;;;;;;;;;;;-2.04;100.00;94777.34;10530390;28;1876;-75
2023/01/19 08:20:14;;;;;;;;;;;;;;;-2.07;100.00;94778.59;10524026;28;2018;-75
2023/01/19 08:25:17;;;;;;;;;;;;;;;-1.95;100.00;94781.31;10528438;28;2157;-75
2023/01/19 08:30:21;;;;;;;;;;;;;;;-1.80;100.00;94786.19;10504413;28;1978;-74
2023/01/19 08:35:25;;;;;;;;;;;;;;;-1.70;100.00;94789.91;10525605;28;2023;-73
2023/01/19 08:40:28;;;;;;;;;;;;;;;-1.58;100.00;94794.44;10527520;28;1997;-74
2023/01/19 08:45:31;;;;;;;;;;;;;;;-1.49;100.00;94788.63;10527998;28;2093;-76
2023/01/19 08:50:34;;;;;;;;;;;;;;;-1.31;100.00;94793.06;10523581;28;1971;-75
2023/01/19 08:55:38;;;;;;;;;;;;;;;-1.13;100.00;94803.56;10524799;28;2065;-75
2023/01/19 09:00:41;;;;;;;;;;;;;;;-1.06;100.00;94802.69;10519644;28;2026;-74
2023/01/19 09:05:44;;;;;;;;;;;;;;;-1.41;100.00;94801.50;10521849;28;2026;-75
2023/01/19 09:10:47;;;;;;;;;;;;;;;-1.41;100.00;94803.34;10528672;28;2016;-75
2023/01/19 09:15:50;;;;;;;;;;;;;;;-1.51;100.00;94803.06;10523039;28;1963;-75
2023/01/19 09:20:54;;;;;;;;;;;;;;;-1.47;100.00;94806.84;10529243;28;1983;-75
2023/01/19 09:25:58;;;;;;;;;;;;;;;-1.31;100.00;94803.63;10526185;28;2064;-76
2023/01/19 09:31:01;;;;;;;;;;;;;;;-1.38;100.00;94808.19;10523949;28;2103;-75
2023/01/19 09:36:04;;;;;;;;;;;;;;;-1.30;100.00;94809.69;10532622;28;1987;-72
2023/01/19 09:41:07;;;;;;;;;;;;;;;-1.07;100.00;94809.78;10530482;28;2217;-74
2023/01/19 09:46:11;;;;;;;;;;;;;;;-0.82;100.00;94807.78;10535955;28;2068;-74
2023/01/19 09:51:14;;;;;;;;;;;;;;;-0.99;100.00;94806.03;10530771;28;1978;-73
2023/01/19 09:56:17;;;;;;;;;;;;;;;-0.98;100.00;94803.16;10519342;28;2112;-73
2023/01/19 10:01:20;;;;;;;;;;;;;;;-0.82;100.00;94802.53;10489729;28;2125;-75
2023/01/19 10:06:24;;;;;;;;;;;;;;;-0.72;100.00;94806.41;10516729;28;2029;-74
2023/01/19 10:11:27;;;;;;;;;;;;;;;-0.58;100.00;94811.25;10521587;28;2101;-74
2023/01/19 10:16:43;;;;;;;;;;;;;;;-0.25;100.00;94799.38;10524637;28;1984;-74
2023/01/19 10:21:46;;;;;;;;;;;;;;;-0.22;100.00;94800.72;10518493;28;2120;-74
2023/01/19 10:26:51;;;;;;;;;;;;;;;0.16;100.00;94803.69;10523266;28;2145;-74
2023/01/19 10:31:54;;;;;;;;;;;;;;;0.23;100.00;94800.91;10525715;28;1974;-74
2023/01/19 10:36:57;;;;;;;;;;;;;;;0.48;100.00;94792.69;10524741;28;2030;-73
2023/01/19 10:42:00;;;;;;;;;;;;;;;0.53;100.00;94798.91;10525156;28;2022;-74
2023/01/19 10:47:04;;;;;;;;;;;;;;;0.63;100.00;94802.75;10520899;28;2061;-74
2023/01/19 10:52:07;;;;;;;;;;;;;;;0.40;100.00;94793.09;10522234;28;2034;-73
2023/01/19 10:57:10;;;;;;;;;;;;;;;0.59;100.00;94786.59;10500113;28;2204;-74
2023/01/19 11:02:13;;;;;;;;;;;;;;;0.51;100.00;94792.25;10523524;28;1927;-74
2023/01/19 11:07:17;;;;;;;;;;;;;;;0.62;100.00;94788.75;10519457;28;1978;-73
2023/01/19 11:12:20;;;;;;;;;;;;;;;0.70;100.00;94779.63;10523355;28;2002;-73
2023/01/19 11:17:23;;;;;;;;;;;;;;;0.63;100.00;94787.69;10524951;28;1992;-74
2023/01/19 11:22:26;;;;;;;;;;;;;;;0.61;100.00;94779.22;10512768;28;1979;-72
2023/01/19 11:27:29;;;;;;;;;;;;;;;0.49;100.00;94781.88;10517347;28;1979;-73
2023/01/19 11:32:35;;;;;;;;;;;;;;;0.60;100.00;94777.59;10518311;28;1985;-73
2023/01/19 11:37:41;;;;;;;;;;;1.50;99.90;;;0.95;100.00;94769.50;10514099;28;2136;-73
2023/01/19 11:42:44;;;;;;;;;;;1.60;99.90;;;1.02;100.00;94764.09;10520084;28;2074;-74
2023/01/19 11:47:48;;;;;;;;;;;1.80;99.90;;;1.33;100.00;94770.66;10525389;28;1975;-73
2023/01/19 11:52:52;;;;;;;;;;;;;;;1.26;100.00;94757.59;10527752;28;2082;-73
2023/01/19 11:57:54;;;;;;;;;;;2.10;99.90;;;1.48;100.00;94760.34;10528154;28;2006;-72
2023/01/19 12:02:58;;;;;;;;;;;2.20;99.90;;;1.19;100.00;94753.50;10507186;28;2094;-74
2023/01/19 12:08:01;;;;;;;;;;;2.10;99.90;;;0.94;100.00;94749.38;10524324;28;2130;-73
2023/01/19 12:13:07;;;;;;;;;;;1.90;99.90;;;1.19;100.00;94749.00;10515896;28;2093;-74
2023/01/19 12:18:11;;;;;;;;;;;;;;;1.17;100.00;94745.00;10529110;28;2127;-73
2023/01/19 12:23:14;;;;;;;;;;;2.00;99.90;;;1.08;100.00;94737.47;10522591;28;2014;-75
2023/01/19 12:28:16;;;;;;;;;;;1.90;99.90;;;0.99;100.00;94738.88;10528504;28;2084;-75
2023/01/19 12:33:19;;;;;;;;;;;1.80;99.90;;;0.90;100.00;94742.97;10530529;28;2114;-75
2023/01/19 12:38:21;;;;;;;;;;;1.70;99.90;;;1.07;100.00;94738.50;10527725;28;2064;-73
2023/01/19 12:43:24;;;;;;;;;;;1.80;99.90;;;1.07;100.00;94740.34;10523088;28;2033;-74
2023/01/19 12:48:27;;;;;;;;;;;1.90;99.90;;;1.15;100.00;94731.22;10526099;28;2062;-75
2023/01/19 12:53:30;;;;;;;;;;;2.00;99.90;;;1.28;100.00;94736.19;10507441;28;2082;-72
2023/01/19 12:58:33;;;;;;;;;;;2.00;99.90;;;1.07;100.00;94735.03;10528455;28;2113;-74
2023/01/19 13:03:36;;;;;;;;;;;2.00;99.90;;;0.92;100.00;94732.94;10525549;28;2006;-74
2023/01/19 13:08:39;;;;;;;;;;;1.90;99.90;;;0.95;100.00;94726.38;10523560;28;2008;-74
2023/01/19 13:13:42;;;;;;;;;;;1.80;99.90;;;1.06;100.00;94734.25;10524545;28;2072;-74
2023/01/19 13:18:46;;;;;;;;;;;1.80;99.90;;;0.63;100.00;94728.72;10525080;28;2508;-73
2023/01/19 13:23:49;;;;;;;;;;;1.80;99.90;;;0.93;100.00;94731.09;10527811;28;2047;-72
2023/01/19 13:28:52;;;;;;;;;;;1.80;99.90;;;0.98;100.00;94732.00;10508743;28;2005;-75
2023/01/19 13:33:54;;;;;;;;;;;1.80;99.90;;;1.01;100.00;94739.44;10525765;28;2178;-74
2023/01/19 13:38:57;;;;;;;;;;;1.80;99.90;;;0.96;100.00;94734.09;10523099;28;2088;-73
2023/01/19 13:44:00;;;;;;;;;;;1.80;99.90;;;0.75;100.00;94734.75;10522943;28;1969;-72
2023/01/19 13:49:02;;;;;;;;;;;1.90;99.90;;;1.20;100.00;94739.22;10541555;27;2064;-72
2023/01/19 13:54:05;;;;;;;;;;;2.10;99.90;;;0.94;100.00;94736.16;10526261;28;2086;-72
2023/01/19 13:59:11;;;;;;;;;;;2.00;99.90;;;1.20;100.00;94733.94;10523402;28;2090;-72
2023/01/19 14:04:14;;;;;;;;;;;2.00;99.90;;;1.00;100.00;94731.75;10524584;28;2071;-73
2023/01/19 14:09:16;;;;;;;;;;;1.90;99.90;;;0.92;100.00;94738.25;10527140;28;2082;-73
2023/01/19 14:14:19;;;;;;;;;;;1.80;99.90;;;1.06;100.00;94730.78;10526282;28;2114;-72
2023/01/19 14:19:22;;;;;;;;;;;1.80;99.90;;;1.13;100.00;94734.09;10518048;28;2090;-73
2023/01/19 14:24:28;;;;;;;;;;;1.90;99.90;;;1.02;100.00;94737.63;10520673;28;2012;-73
2023/01/19 14:29:31;;;;;;;;;;;1.90;99.90;;;0.81;100.00;94741.75;10518499;28;2022;-73
2023/01/19 14:34:34;;;;;;;;;;;1.80;99.90;;;0.67;100.00;94751.03;10521113;28;2136;-73
2023/01/19 14:39:37;;;;;;;;;;;1.70;99.90;;;0.72;100.00;94751.13;10518454;28;2085;-72
2023/01/19 14:44:40;;;;;;;;;;;1.60;99.90;;;0.58;100.00;94755.09;10519991;28;2104;-72
2023/01/19 14:49:43;;;;;;;;;;;1.60;99.90;;;0.49;100.00;94760.72;10522609;28;2068;-76
2023/01/19 14:54:46;;;;;;;;;;;1.50;99.90;;;0.47;100.00;94752.25;10528416;28;2083;-72
2023/01/19 14:59:49;;;;;;;;;;;1.50;99.90;;;0.62;100.00;94770.22;10518786;28;2370;-73
2023/01/19 15:04:54;;;;;;;;;;;1.50;99.90;;;0.41;100.00;94762.97;10520066;28;2018;-73
2023/01/19 15:09:56;;;;;;;;;;;1.50;99.90;;;0.46;100.00;94771.00;10524229;28;2009;-74
2023/01/19 15:14:59;;;;;;;;;;;1.30;99.90;;;0.33;100.00;94772.06;10523780;28;2159;-73
2023/01/19 15:20:02;;;;;;;;;;;1.40;99.90;;;0.30;100.00;94775.16;10518339;28;2097;-77
2023/01/19 15:25:04;;;;;;;;;;;1.40;99.90;;;0.32;100.00;94781.03;10527864;28;2120;-75
2023/01/19 15:30:07;;;;;;;;;;;1.50;99.90;;;0.33;100.00;94772.06;10526503;28;2062;-74
2023/01/19 15:35:10;;;;;;;;;;;1.50;99.90;;;0.39;100.00;94784.34;10532451;28;2085;-75
2023/01/19 15:40:13;;;;;;;;;;;1.50;99.90;;;0.20;100.00;94782.91;10533520;28;2045;-74
2023/01/19 15:45:15;;;;;;;;;;;1.40;99.90;;;0.20;100.00;94783.69;10524466;28;2194;-75
2023/01/19 15:50:18;;;;;;;;;;;1.40;99.90;;;0.20;100.00;94785.53;10522087;28;2065;-74
2023/01/19 15:55:21;;;;;;;;;;;1.30;99.90;;;0.10;100.00;94791.41;10529511;28;2074;-75
2023/01/19 16:00:24;;;;;;;;;;;1.30;99.90;;;-0.04;100.00;94788.22;10529016;28;2033;-74
2023/01/19 16:05:26;;;;;;;;;;;1.20;99.90;;;-0.19;100.00;94793.16;10524499;28;2181;-75
2023/01/19 16:10:43;;;;;;;;;;;1.10;99.90;;;-0.21;100.00;94797.84;10525044;28;2069;-76
2023/01/19 16:15:46;;;;;;;;;;;0.90;99.90;;;-0.20;100.00;94799.47;10530696;28;2011;-77
2023/01/19 16:20:49;;;;;;;;;;;0.90;99.90;;;-0.16;100.00;94800.63;10527756;28;2045;-75
2023/01/19 16:25:52;;;;;;;;;;;1.00;99.90;;;-0.21;100.00;94807.63;10505037;28;2022;-74
2023/01/19 16:30:54;;;;;;;;;;;0.90;99.90;;;-0.15;100.00;94806.69;10522943;28;2038;-73
2023/01/19 16:35:57;;;;;;;;;;;0.90;99.90;;;-0.19;100.00;94806.38;10525764;28;2449;-71
2023/01/19 16:41:00;;;;;;;;;;;0.90;99.90;;;-0.12;100.00;94803.63;10529373;28;2122;-73
2023/01/19 16:46:03;;;;;;;;;;;0.90;99.90;;;-0.24;100.00;94803.63;10528985;28;1989;-73
2023/01/19 16:51:05;;;;;;;;;;;0.90;99.90;;;-0.29;100.00;94808.78;10532000;28;2073;-73
2023/01/19 16:56:08;;;;;;;;;;;0.80;99.90;;;-0.40;100.00;94809.56;10522761;28;2118;-73
2023/01/19 17:01:11;;;;;;;;;;;0.80;99.90;;;-0.43;100.00;94810.03;10524176;28;1997;-74
2023/01/19 17:06:15;;;;;;;;;;;0.70;99.90;;;-0.45;100.00;94812.06;10525731;28;2104;-72
2023/01/19 17:11:19;;;;;;;;;;;0.70;99.90;;;-0.54;100.00;94808.97;10516533;28;2190;-72
2023/01/19 17:16:22;;;;;;;;;;;0.60;99.90;;;-0.58;100.00;94808.63;10526794;28;2053;-74
2023/01/19 17:21:24;;;;;;;;;;;0.60;99.90;;;-0.71;100.00;94813.31;10517160;28;2091;-74
2023/01/19 17:26:29;;;;;;;;;;;0.50;99.90;;;-0.64;100.00;94809.53;10518154;28;2064;-73
2023/01/19 17:31:32;;;;;;;;;;;0.40;99.90;;;-0.67;100.00;94810.00;10518195;28;2269;-75
2023/01/19 17:36:35;;;;;;;;;;;0.50;99.90;;;-0.63;100.00;94805.88;10525962;28;2150;-74
2023/01/19 17:41:37;;;;;;;;;;;0.50;99.90;;;-0.67;100.00;94803.91;10529068;28;2032;-74
2023/01/19 17:46:40;;;;;;;;;;;0.60;99.90;;;-0.58;100.00;94803.34;10525509;28;2104;-70
2023/01/19 17:51:43;;;;;;;;;;;0.50;99.90;;;-0.51;100.00;94810.34;10504776;28;2069;-70
2023/01/19 17:56:45;;;;;;;;;;;0.50;99.90;;;-0.58;100.00;94803.34;10513355;28;2000;-70
2023/01/19 18:01:48;;;;;;;;;;;0.50;99.90;;;-0.63;100.00;94805.06;10512112;28;2021;-73
2023/01/19 18:06:51;;;;;;;;;;;0.50;99.90;;;-0.65;100.00;94818.47;10506489;28;2137;-71
2023/01/19 18:11:54;;;;;;;;;;;0.50;99.90;;;-0.61;100.00;94813.56;10517496;28;2069;-73
2023/01/19 18:16:56;;;;;;;;;;;0.50;99.90;;;-0.62;100.00;94807.47;10519365;28;1978;-72
2023/01/19 18:21:59;;;;;;;;;;;0.50;99.90;;;-0.70;100.00;94814.91;10518128;28;2032;-72
2023/01/19 18:27:02;;;;;;;;;;;0.40;99.90;;;-0.66;100.00;94816.88;10528051;28;2064;-73
2023/01/19 18:32:04;;;;;;;;;;;0.50;99.90;;;-0.67;100.00;94820.56;10514272;28;2157;-71
2023/01/19 18:37:07;;;;;;;;;;;0.40;99.90;;;-0.69;100.00;94816.53;10537564;28;2131;-72
2023/01/19 18:42:11;;;;;;;;;;;0.40;99.90;;;-0.65;100.00;94813.19;10509416;28;2063;-73
2023/01/19 18:47:14;;;;;;;;;;;0.40;99.90;;;-0.59;100.00;94814.13;10523268;28;2094;-73
2023/01/19 18:52:17;;;;;;;;;;;0.50;99.90;;;-0.59;100.00;94822.06;10523039;28;2168;-77
2023/01/19 18:57:20;;;;;;;;;;;0.40;99.90;;;-0.61;100.00;94821.47;10535411;28;1990;-74
2023/01/19 19:02:24;;;;;;;;;;;0.50;99.90;;;-0.63;100.00;94819.06;10527084;28;2056;-75
2023/01/19 19:07:26;;;;;;;;;;;0.50;99.90;;;-0.59;100.00;94822.06;10524819;28;2053;-74
2023/01/19 19:12:29;;;;;;;;;;;0.50;99.90;;;-0.51;100.00;94820.91;10521470;28;2100;-75
2023/01/19 19:17:31;;;;;;;;;;;0.60;99.90;;;-0.45;100.00;94820.81;10526703;28;2073;-74
2023/01/19 19:22:34;;;;;;;;;;;0.60;99.90;;;-0.47;100.00;94814.16;10525529;28;2053;-76
2023/01/19 19:27:37;;;;;;;;;;;0.60;99.90;;;-0.46;100.00;94811.28;10528932;28;2145;-75
2023/01/19 19:32:40;;;;;;;;;;;0.50;99.90;;;-0.49;100.00;94818.88;10526642;28;2119;-74
2023/01/19 19:37:42;;;;;;;;;;;0.60;99.90;;;-0.45;100.00;94812.06;10530879;28;2049;-73
2023/01/19 19:42:45;;;;;;;;;;;0.60;99.90;;;-0.47;100.00;94814.16;10523328;28;2038;-73
2023/01/19 19:47:48;;;;;;;;;;;0.60;99.90;;;-0.45;100.00;94809.44;10511168;28;2141;-73
2023/01/19 19:52:50;;;;;;;;;;;0.60;99.90;;;-0.49;100.00;94805.66;10526459;28;2124;-77
2023/01/19 19:57:54;;;;;;;;;;;0.60;99.90;;;-0.54;100.00;94808.97;10523516;28;1993;-75
2023/01/19 20:02:56;;;;;;;;;;;0.50;99.90;;;-0.51;100.00;94810.34;10502041;28;2092;-72
2023/01/19 20:07:59;;;;;;;;;;;0.60;99.90;;;-0.55;100.00;94816.09;10523561;28;2128;-75
2023/01/19 20:13:02;;;;;;;;;;;0.50;99.90;;;-0.55;100.00;94816.09;10529764;28;2017;-73
2023/01/19 20:18:05;;;;;;;;;;;0.50;99.90;;;-0.55;100.00;94817.94;10550238;28;2017;-75
2023/01/19 20:23:07;;;;;;;;;;;0.50;99.90;;;-0.64;100.00;94820.09;10529410;28;2061;-73
2023/01/19 20:28:10;;;;;;;;;;;0.50;99.90;;;-0.55;100.00;94823.22;10531293;28;2366;-73
2023/01/19 20:33:13;;;;;;;;;;;0.50;99.90;;;-0.64;100.00;94814.81;10527467;28;2049;-74
2023/01/19 20:38:16;;;;;;;;;;;0.50;99.90;;;-0.63;100.00;94820.91;10533350;28;2088;-73
2023/01/19 20:43:19;;;;;;;;;;;0.40;99.90;;;-0.70;100.00;94821.03;10531062;28;2105;-74
2023/01/19 20:48:22;;;;;;;;;;;0.50;99.90;;;-0.79;100.00;94817.09;10532373;28;2120;-72
2023/01/19 20:53:25;;;;;;;;;;;0.30;99.90;;;-0.88;100.00;94823.72;10528671;28;2055;-75
2023/01/19 20:58:30;;;;;;;;;;;0.20;99.90;;;-0.90;100.00;94816.00;10530464;28;2028;-74
2023/01/19 21:03:35;;;;;;;;;;;0.20;99.90;;;-0.91;100.00;94821.53;10514080;28;2155;-74
2023/01/19 21:08:37;;;;;;;;;;;0.20;99.90;;;-0.91;100.00;94810.97;10526645;28;2186;-73
2023/01/19 21:13:40;;;;;;;;;;;0.20;99.90;;;-1.03;100.00;94810.13;10530058;28;2018;-73
2023/01/19 21:18:43;;;;;;;;;;;0.10;99.90;;;-1.11;100.00;94814.69;10529610;28;1990;-72
2023/01/19 21:23:46;;;;;;;;;;;0.10;99.90;;;-1.16;100.00;94806.66;10526936;28;1983;-72
2023/01/19 21:28:49;;;;;;;;;;;0.00;99.90;;;-1.26;100.00;94811.66;10513104;28;2110;-73
2023/01/19 21:33:53;;;;;;;;;;;0.00;99.90;;;-1.36;100.00;94816.66;10532241;28;2059;-73
2023/01/19 21:38:59;;;;;;;;;;;-0.10;99.90;;;-1.32;100.00;94822.31;10531196;28;1965;-74
2023/01/19 21:44:02;;;;;;;;;;;0.10;99.90;;;-1.30;100.00;94825.50;10522082;28;2060;-74
2023/01/19 21:49:05;;;;;;;;;;;-0.20;99.90;;;-1.26;100.00;94826.69;10500842;28;2052;-75
2023/01/19 21:54:08;;;;;;;;;;;-0.20;99.90;;;-1.26;100.00;94831.97;10520803;28;2076;-74
2023/01/19 21:59:12;;;;;;;;;;;-0.20;99.90;;;-1.27;100.00;94831.16;10527359;28;2032;-72
2023/01/19 22:04:14;;;;;;;;;;;0.10;99.90;;;-1.23;100.00;94834.94;10525922;28;2087;-73
2023/01/19 22:09:17;;;;;;;;;;;-0.10;99.90;;;-1.17;100.00;94852.50;10522479;28;2157;-73
2023/01/19 22:14:20;;;;;;;;;;;-0.10;99.90;;;-1.07;100.00;94853.81;10517685;28;2132;-72
2023/01/19 22:19:22;;;;;;;;;;;-0.10;99.90;;;-1.09;100.00;94849.56;10524583;28;2057;-74
2023/01/19 22:24:25;;;;;;;;;;;-0.10;99.90;;;-1.10;100.00;94852.41;10524204;28;2060;-74
2023/01/19 22:29:27;;;;;;;;;;;0.10;99.90;;;-1.11;100.00;94850.81;10531648;27;2087;-74
2023/01/19 22:34:30;;;;;;;;;;;0.00;99.90;;;-1.04;100.00;94856.81;10502655;28;2062;-73
2023/01/19 22:39:34;;;;;;;;;;;0.00;99.90;;;-1.12;100.00;94868.47;10523612;28;2064;-73
2023/01/19 22:44:37;;;;;;;;;;;0.00;99.90;;;-1.11;100.00;94870.09;10504397;28;1989;-73
2023/01/19 22:49:40;;;;;;;;;;;0.00;99.90;;;-1.15;100.00;94866.28;10516050;28;2367;-73
2023/01/19 22:54:42;;;;;;;;;;;-0.10;99.90;;;-1.13;100.00;94868.72;10526787;28;1991;-74
2023/01/19 22:59:45;;;;;;;;;;;-0.10;99.90;;;-1.15;100.00;94870.75;10519521;28;1987;-74
2023/01/19 23:04:48;;;;;;;;;;;-0.10;99.90;;;-1.12;100.00;94863.19;10530084;28;2065;-73
2023/01/19 23:09:50;;;;;;;;;;;-0.10;99.90;;;-1.11;100.00;94864.00;10524058;28;2105;-74
2023/01/19 23:14:53;;;;;;;;;;;-0.10;99.90;;;-1.10;100.00;94869.03;10519482;28;2061;-74
2023/01/19 23:19:56;;;;;;;;;;;-0.10;99.90;;;-1.06;100.00;94865.97;10523241;28;2056;-73
2023/01/19 23:24:58;;;;;;;;;;;-0.10;99.90;;;-1.02;100.00;94865.28;10519485;28;2069;-74
2023/01/19 23:30:01;;;;;;;;;;;0.00;99.90;;;-1.12;100.00;94863.19;10517504;28;2454;-78
2023/01/19 23:35:04;;;;;;;;;;;0.00;99.90;;;-1.14;100.00;94861.81;10504855;28;2154;-76
2023/01/19 23:40:08;;;;;;;;;;;0.00;99.90;;;-1.13;100.00;94861.59;10515840;28;2134;-74
2023/01/19 23:45:11;;;;;;;;;;;0.00;99.90;;;-1.03;100.00;94860.25;10522899;28;2078;-72
2023/01/19 23:50:14;;;;;;;;;;;0.00;99.90;;;-1.07;100.00;94859.09;10523674;28;2028;-72
2023/01/19 23:55:17;;;;;;;;;;;0.10;99.90;;;-1.10;100.00;94860.34;10526492;28;2024;-73
